Time;durP1;ratioP1;P1;durP2;ratioP2;P2;SDS_P1;SDS_P2;PMS_P1;PMS_P2;Temp;Humidity;BMP_temperature;BMP_pressure;BME280_temperature;BME280_humidity;BME280_pressure;Samples;Min_cycle;Max_cycle;Signal;HPM_P1;HPM_P2
2022/09/16 00:00:03;;;;;;;;;;;16.70;99.90;;;;;;5076110;28;19915;-66
2022/09/16 00:02:29;;;;;;;;;;;16.70;99.90;;;;;;5093475;28;19910;-66
2022/09/16 00:04:54;;;;;;;;;;;16.90;99.90;;;;;;5094240;28;19998;-66
2022/09/16 00:07:20;;;;;;;;;;;16.80;99.90;;;;;;5093925;28;19953;-66
2022/09/16 00:09:45;;;;;;;;;;;16.80;99.90;;;;;;5094187;28;19904;-66
2022/09/16 00:12:11;;;;;;;;;;;16.80;99.90;;;;;;5094378;28;19908;-66
2022/09/16 00:14:36;;;;;;;;;;;16.80;99.90;;;;;;5093986;28;19964;-66
2022/09/16 00:17:01;;;;;;;;;;;16.90;99.90;;;;;;5093968;28;19953;-66
2022/09/16 00:19:27;;;;;;;;;;;16.70;99.90;;;;;;5094016;28;20342;-66
2022/09/16 00:21:52;;;;;;;;;;;16.70;99.90;;;;;;5093904;28;19969;-66
2022/09/16 00:24:18;;;;;;;;;;;16.80;99.90;;;;;;5094264;28;19911;-66
2022/09/16 00:26:43;;;;;;;;;;;16.80;99.90;;;;;;5094594;28;19904;-66
2022/09/16 00:29:09;;;;;;;;;;;16.80;99.90;;;;;;5093855;28;20280;-66
2022/09/16 00:31:34;;;;;;;;;;;16.80;99.90;;;;;;5093923;28;19904;-66
2022/09/16 00:34:00;;;;;;;;;;;16.60;99.90;;;;;;5094060;28;19969;-66
2022/09/16 00:36:25;;;;;;;;;;;16.60;99.90;;;;;;5093796;28;19908;-66
2022/09/16 00:38:51;;;;;;;;;;;16.60;99.90;;;;;;5093513;28;19912;-65
2022/09/16 00:41:18;;;;;;;;;;;16.50;99.90;;;;;;5093873;28;20349;-66
2022/09/16 00:43:55;;;;;;;;;;;16.50;99.90;;;;;;5093977;28;19904;-65
2022/09/16 00:46:40;;;;;;;;;;;16.70;99.90;;;;;;5093662;28;20098;-66
2022/09/16 00:49:10;;;;;;;;;;;16.80;99.90;;;;;;5092847;28;20412;-66
2022/09/16 00:51:36;;;;;;;;;;;16.80;99.90;;;;;;5093570;28;19912;-66
2022/09/16 00:54:03;;;;;;;;;;;16.70;99.90;;;;;;5093490;28;20333;-66
2022/09/16 00:56:30;;;;;;;;;;;16.70;99.90;;;;;;5093979;28;19904;-66
2022/09/16 00:59:01;;;;;;;;;;;16.50;99.90;;;;;;5093499;28;20003;-66
2022/09/16 01:01:28;;;;;;;;;;;16.50;99.90;;;;;;5093683;28;19961;-66
2022/09/16 01:03:55;;;;;;;;;;;16.40;99.90;;;;;;5093518;28;19915;-65
2022/09/16 01:06:21;;;;;;;;;;;16.30;99.90;;;;;;5093459;28;19939;-66
2022/09/16 01:08:48;;;;;;;;;;;16.30;99.90;;;;;;5093479;28;19911;-66
2022/09/16 01:11:13;;;;;;;;;;;16.30;99.90;;;;;;5093461;28;19904;-66
2022/09/16 01:13:40;;;;;;;;;;;16.30;99.90;;;;;;5096362;28;19911;-66
2022/09/16 01:16:08;;;;;;;;;;;16.20;99.90;;;;;;5097602;28;19911;-66
2022/09/16 01:18:39;;;;;;;;;;;16.30;99.90;;;;;;5097671;28;19904;-66
2022/09/16 01:21:11;;;;;;;;;;;16.30;99.90;;;;;;5097497;28;20015;-66
2022/09/16 01:23:45;;;;;;;;;;;16.40;99.90;;;;;;5097546;28;19904;-66
2022/09/16 01:26:24;;;;;;;;;;;16.40;99.90;;;;;;5097287;28;19908;-66
2022/09/16 01:29:08;;;;;;;;;;;16.40;99.90;;;;;;5097317;28;19904;-66
2022/09/16 01:31:49;;;;;;;;;;;16.30;99.90;;;;;;5097193;28;19930;-66
2022/09/16 01:34:20;;;;;;;;;;;16.20;99.90;;;;;;5097666;28;19904;-66
2022/09/16 01:37:01;;;;;;;;;;;16.30;99.90;;;;;;5079056;28;19927;-67
2022/09/16 01:39:36;;;;;;;;;;;16.30;99.90;;;;;;5078916;28;19916;-67
2022/09/16 01:42:06;;;;;;;;;;;16.20;99.90;;;;;;5097715;28;19908;-65
2022/09/16 01:44:34;;;;;;;;;;;16.20;99.90;;;;;;5097136;28;20356;-66
2022/09/16 01:47:00;;;;;;;;;;;16.30;99.90;;;;;;5096880;28;20318;-66
2022/09/16 01:49:35;;;;;;;;;;;16.30;99.90;;;;;;5098315;28;19973;-66
2022/09/16 01:52:13;;;;;;;;;;;16.40;99.90;;;;;;5097175;28;19908;-66
2022/09/16 01:54:41;;;;;;;;;;;16.30;99.90;;;;;;5096756;28;19987;-66
2022/09/16 01:57:28;;;;;;;;;;;16.20;99.90;;;;;;5096825;28;19947;-66
2022/09/16 02:00:05;;;;;;;;;;;16.20;99.90;;;;;;5078607;28;19912;-65
2022/09/16 02:02:41;;;;;;;;;;;16.00;99.90;;;;;;5097091;28;19924;-65
2022/09/16 02:05:09;;;;;;;;;;;16.00;99.90;;;;;;5096682;28;19911;-65
2022/09/16 02:07:37;;;;;;;;;;;16.00;99.90;;;;;;5097289;28;20276;-65
2022/09/16 02:10:09;;;;;;;;;;;16.00;99.90;;;;;;5096892;28;20003;-66
2022/09/16 02:12:39;;;;;;;;;;;16.00;99.90;;;;;;5096539;28;19911;-66
2022/09/16 02:15:07;;;;;;;;;;;16.00;99.90;;;;;;5096809;28;19950;-66
2022/09/16 02:17:34;;;;;;;;;;;16.10;99.90;;;;;;5078293;28;19954;-65
2022/09/16 02:20:04;;;;;;;;;;;16.20;99.90;;;;;;5096546;28;19907;-65
2022/09/16 02:22:31;;;;;;;;;;;16.30;99.90;;;;;;5096505;28;20372;-66
2022/09/16 02:24:58;;;;;;;;;;;16.30;99.90;;;;;;5095588;28;19911;-65
2022/09/16 02:27:26;;;;;;;;;;;16.20;99.90;;;;;;5096618;28;19904;-65
2022/09/16 02:29:53;;;;;;;;;;;16.10;99.90;;;;;;5097734;28;19912;-66
2022/09/16 02:32:21;;;;;;;;;;;16.00;99.90;;;;;;5102906;28;19968;-66
2022/09/16 02:34:49;;;;;;;;;;;16.10;99.90;;;;;;5103402;28;19908;-66
2022/09/16 02:37:18;;;;;;;;;;;16.10;99.90;;;;;;5105246;28;20324;-66
2022/09/16 02:39:46;;;;;;;;;;;16.00;99.90;;;;;;5104332;28;19946;-68
2022/09/16 02:42:12;;;;;;;;;;;16.00;99.90;;;;;;5101738;28;20260;-67
2022/09/16 02:44:38;;;;;;;;;;;16.20;99.90;;;;;;5101509;28;19904;-66
2022/09/16 02:47:16;;;;;;;;;;;16.10;99.90;;;;;;5101785;28;20298;-66
2022/09/16 02:49:53;;;;;;;;;;;16.30;99.90;;;;;;5102776;28;19984;-66
2022/09/16 02:52:22;;;;;;;;;;;16.30;99.90;;;;;;5102656;28;19904;-66
2022/09/16 02:54:53;;;;;;;;;;;16.10;99.90;;;;;;5102980;28;19904;-65
2022/09/16 02:57:19;;;;;;;;;;;16.10;99.90;;;;;;5103544;28;19904;-66
2022/09/16 02:59:44;;;;;;;;;;;16.10;99.90;;;;;;5107079;28;19947;-66
2022/09/16 03:02:10;;;;;;;;;;;16.10;99.90;;;;;;5110177;28;19904;-66
2022/09/16 03:04:35;;;;;;;;;;;16.10;99.90;;;;;;5109494;28;19904;-66
2022/09/16 03:07:05;;;;;;;;;;;16.20;99.90;;;;;;5107722;28;19915;-65
2022/09/16 03:09:33;;;;;;;;;;;16.30;99.90;;;;;;5101232;28;19908;-66
2022/09/16 03:11:59;;;;;;;;;;;16.10;99.90;;;;;;5100378;28;19991;-66
2022/09/16 03:14:49;;;;;;;;;;;16.10;99.90;;;;;;5101551;28;19975;-66
2022/09/16 03:17:34;;;;;;;;;;;16.10;99.90;;;;;;5086340;28;19908;-67
2022/09/16 03:20:02;;;;;;;;;;;16.20;99.90;;;;;;5099280;28;19908;-66
2022/09/16 03:22:28;;;;;;;;;;;16.10;99.90;;;;;;5098973;28;19904;-66
2022/09/16 03:24:58;;;;;;;;;;;16.10;99.90;;;;;;5098443;28;20403;-66
2022/09/16 03:27:30;;;;;;;;;;;16.20;99.90;;;;;;5085089;28;20028;-66
2022/09/16 03:29:59;;;;;;;;;;;16.20;99.90;;;;;;5101040;28;19987;-66
2022/09/16 03:32:29;;;;;;;;;;;16.20;99.90;;;;;;5095892;28;19904;-66
2022/09/16 03:35:07;;;;;;;;;;;16.20;99.90;;;;;;5095602;28;20384;-66
2022/09/16 03:37:34;;;;;;;;;;;16.20;99.90;;;;;;5077113;28;19919;-66
2022/09/16 03:40:02;;;;;;;;;;;16.20;99.90;;;;;;5076947;28;19954;-66
2022/09/16 03:42:28;;;;;;;;;;;16.10;99.90;;;;;;5095067;28;19904;-66
2022/09/16 03:44:53;;;;;;;;;;;16.10;99.90;;;;;;5095181;28;20294;-66
2022/09/16 03:47:19;;;;;;;;;;;16.10;99.90;;;;;;5076502;28;19927;-66
2022/09/16 03:49:44;;;;;;;;;;;16.10;99.90;;;;;;5093758;28;19987;-66
2022/09/16 03:52:10;;;;;;;;;;;16.00;99.90;;;;;;5095612;28;19904;-66
2022/09/16 03:54:36;;;;;;;;;;;15.90;99.90;;;;;;5076693;28;20321;-65
2022/09/16 03:57:01;;;;;;;;;;;16.00;99.90;;;;;;5094543;28;19911;-65
2022/09/16 03:59:27;;;;;;;;;;;16.10;99.90;;;;;;5094583;28;20373;-66
2022/09/16 04:01:52;;;;;;;;;;;16.10;99.90;;;;;;5094511;28;20364;-66
2022/09/16 04:04:18;;;;;;;;;;;16.10;99.90;;;;;;5094419;28;19908;-65
2022/09/16 04:06:43;;;;;;;;;;;16.10;99.90;;;;;;5094410;28;19904;-65
2022/09/16 04:09:10;;;;;;;;;;;16.10;99.90;;;;;;5094618;28;20280;-65
2022/09/16 04:11:36;;;;;;;;;;;16.10;99.90;;;;;;5094816;28;19947;-66
2022/09/16 04:14:03;;;;;;;;;;;16.00;99.90;;;;;;5094439;28;19904;-65
2022/09/16 04:16:29;;;;;;;;;;;16.10;99.90;;;;;;5076026;28;19954;-66
2022/09/16 04:18:54;;;;;;;;;;;16.20;99.90;;;;;;5095509;28;19904;-66
2022/09/16 04:21:19;;;;;;;;;;;16.20;99.90;;;;;;5094494;28;19930;-67
2022/09/16 04:23:45;;;;;;;;;;;16.20;99.90;;;;;;5094299;28;19903;-66
2022/09/16 04:26:10;;;;;;;;;;;16.20;99.90;;;;;;5094545;28;19908;-66
2022/09/16 04:28:36;;;;;;;;;;;16.20;99.90;;;;;;5094412;28;20272;-67
2022/09/16 04:31:02;;;;;;;;;;;16.10;99.90;;;;;;5094020;28;19986;-66
2022/09/16 04:33:29;;;;;;;;;;;16.10;99.90;;;;;;5094282;28;19911;-66
2022/09/16 04:36:00;;;;;;;;;;;16.10;99.90;;;;;;5094178;28;19943;-67
2022/09/16 04:38:26;;;;;;;;;;;16.10;99.90;;;;;;5094363;28;19919;-67
2022/09/16 04:40:53;;;;;;;;;;;16.00;99.90;;;;;;5094599;28;19912;-66
2022/09/16 04:43:18;;;;;;;;;;;16.10;99.90;;;;;;5094050;28;19949;-68
2022/09/16 04:45:44;;;;;;;;;;;16.10;99.90;;;;;;5094464;28;20310;-67
2022/09/16 04:48:09;;;;;;;;;;;16.00;99.90;;;;;;5093416;28;20423;-67
2022/09/16 04:50:35;;;;;;;;;;;16.00;99.90;;;;;;5094394;28;20360;-67
2022/09/16 04:53:06;;;;;;;;;;;15.90;99.90;;;;;;5075771;28;19926;-67
2022/09/16 04:55:32;;;;;;;;;;;16.00;99.90;;;;;;5075677;28;20022;-67
2022/09/16 04:57:58;;;;;;;;;;;16.00;99.90;;;;;;5093979;28;20360;-67
2022/09/16 05:00:24;;;;;;;;;;;15.90;99.90;;;;;;5094262;28;19988;-67
2022/09/16 05:02:50;;;;;;;;;;;15.80;99.90;;;;;;5094083;28;19904;-66
2022/09/16 05:05:16;;;;;;;;;;;15.80;99.90;;;;;;5094012;28;19965;-66
2022/09/16 05:07:41;;;;;;;;;;;15.80;99.90;;;;;;5093686;28;20007;-66
2022/09/16 05:10:07;;;;;;;;;;;15.80;99.90;;;;;;5094017;28;19911;-65
2022/09/16 05:12:32;;;;;;;;;;;15.80;99.90;;;;;;5094126;28;20002;-70
2022/09/16 05:14:58;;;;;;;;;;;15.80;99.90;;;;;;5093620;28;19959;-68
2022/09/16 05:17:23;;;;;;;;;;;15.70;99.90;;;;;;5075248;28;19904;-65
2022/09/16 05:19:49;;;;;;;;;;;15.60;99.90;;;;;;5093335;28;20390;-66
2022/09/16 05:22:14;;;;;;;;;;;15.70;99.90;;;;;;5093584;28;20295;-65
2022/09/16 05:24:40;;;;;;;;;;;15.70;99.90;;;;;;5093410;28;20280;-65
2022/09/16 05:27:05;;;;;;;;;;;15.60;99.90;;;;;;5094439;28;19904;-65
2022/09/16 05:29:31;;;;;;;;;;;15.50;99.90;;;;;;5093183;28;19919;-66
2022/09/16 05:31:57;;;;;;;;;;;15.40;99.90;;;;;;5093574;28;19911;-66
2022/09/16 05:34:27;;;;;;;;;;;15.30;99.90;;;;;;5093877;28;19910;-64
2022/09/16 05:36:53;;;;;;;;;;;15.20;99.90;;;;;;5093388;28;19964;-66
2022/09/16 05:39:22;;;;;;;;;;;15.10;99.90;;;;;;5093660;28;19916;-64
2022/09/16 05:41:48;;;;;;;;;;;15.10;99.90;;;;;;5093305;28;20362;-66
2022/09/16 05:44:13;;;;;;;;;;;15.00;99.90;;;;;;5093465;28;20003;-66
2022/09/16 05:46:39;;;;;;;;;;;15.00;99.90;;;;;;5093535;28;20352;-66
2022/09/16 05:49:05;;;;;;;;;;;15.00;99.90;;;;;;5093133;28;19911;-66
2022/09/16 05:51:31;;;;;;;;;;;15.00;99.90;;;;;;5093115;28;19904;-67
2022/09/16 05:53:57;;;;;;;;;;;15.10;99.90;;;;;;5093180;28;19904;-66
2022/09/16 05:56:24;;;;;;;;;;;15.10;99.90;;;;;;5093277;28;19904;-68
2022/09/16 05:58:51;;;;;;;;;;;15.00;99.90;;;;;;5093454;28;20327;-65
2022/09/16 06:01:18;;;;;;;;;;;15.10;99.90;;;;;;5096949;28;19911;-67
2022/09/16 06:03:44;;;;;;;;;;;15.10;99.90;;;;;;5097030;28;20280;-66
2022/09/16 06:06:21;;;;;;;;;;;14.90;99.90;;;;;;5096699;28;20008;-67
2022/09/16 06:08:47;;;;;;;;;;;14.80;99.90;;;;;;5096467;28;19904;-66
2022/09/16 06:11:12;;;;;;;;;;;14.80;99.90;;;;;;5097079;28;19910;-66
2022/09/16 06:13:38;;;;;;;;;;;14.90;99.90;;;;;;5096444;28;20356;-65
2022/09/16 06:16:04;;;;;;;;;;;14.90;99.90;;;;;;5096414;28;20378;-65
2022/09/16 06:18:30;;;;;;;;;;;14.90;99.90;;;;;;5096330;28;19929;-66
2022/09/16 06:20:56;;;;;;;;;;;15.00;99.90;;;;;;5096355;28;20105;-64
2022/09/16 06:23:22;;;;;;;;;;;15.00;99.90;;;;;;5096421;28;19915;-65
2022/09/16 06:25:47;;;;;;;;;;;15.00;99.90;;;;;;5095951;28;19904;-64
2022/09/16 06:28:13;;;;;;;;;;;15.20;99.90;;;;;;5096355;28;19904;-66
2022/09/16 06:30:39;;;;;;;;;;;15.20;99.90;;;;;;5096396;28;20250;-65
2022/09/16 06:33:04;;;;;;;;;;;15.10;99.90;;;;;;5095920;28;19911;-65
2022/09/16 06:35:31;;;;;;;;;;;15.00;99.90;;;;;;5095988;28;19904;-65
2022/09/16 06:37:58;;;;;;;;;;;15.00;99.90;;;;;;5095605;28;19912;-65
2022/09/16 06:40:23;;;;;;;;;;;15.10;99.90;;;;;;5095556;28;19950;-65
2022/09/16 06:42:51;;;;;;;;;;;15.10;99.90;;;;;;5095757;28;20248;-62
2022/09/16 06:45:16;;;;;;;;;;;15.00;99.90;;;;;;5077560;28;20007;-65
2022/09/16 06:47:42;;;;;;;;;;;15.10;99.90;;;;;;5095987;28;19943;-65
2022/09/16 06:50:08;;;;;;;;;;;15.20;99.90;;;;;;5095938;28;19904;-65
2022/09/16 06:52:34;;;;;;;;;;;15.10;99.90;;;;;;5096645;28;19971;-64
2022/09/16 06:55:00;;;;;;;;;;;15.10;99.90;;;;;;5078325;28;20011;-65
2022/09/16 06:57:25;;;;;;;;;;;15.10;99.90;;;;;;5095952;28;20325;-64
2022/09/16 06:59:51;;;;;;;;;;;15.00;99.90;;;;;;5095486;28;20032;-63
2022/09/16 07:02:18;;;;;;;;;;;15.10;99.90;;;;;;5095460;28;19950;-61
2022/09/16 07:04:44;;;;;;;;;;;15.10;99.90;;;;;;5095723;28;19904;-63
2022/09/16 07:07:09;;;;;;;;;;;15.00;99.90;;;;;;5095674;28;19911;-63
2022/09/16 07:09:35;;;;;;;;;;;15.10;99.90;;;;;;5097075;28;19904;-64
2022/09/16 07:12:01;;;;;;;;;;;15.00;99.90;;;;;;5095544;28;19965;-67
2022/09/16 07:14:27;;;;;;;;;;;15.10;99.90;;;;;;5095718;28;19912;-67
2022/09/16 07:16:52;;;;;;;;;;;15.10;99.90;;;;;;5095774;28;19931;-67
2022/09/16 07:19:18;;;;;;;;;;;15.10;99.90;;;;;;5095161;28;19904;-67
2022/09/16 07:21:44;;;;;;;;;;;14.90;99.90;;;;;;5095144;28;19915;-67
2022/09/16 07:24:12;;;;;;;;;;;15.10;99.90;;;;;;5095623;28;20402;-67
2022/09/16 07:26:39;;;;;;;;;;;15.20;99.90;;;;;;5095326;28;19912;-67
2022/09/16 07:29:05;;;;;;;;;;;15.20;99.90;;;;;;5094965;28;19904;-68
2022/09/16 07:31:32;;;;;;;;;;;15.30;99.90;;;;;;5094771;28;20017;-67
2022/09/16 07:34:00;;;;;;;;;;;15.50;99.90;;;;;;5095005;28;19911;-67
2022/09/16 07:36:27;;;;;;;;;;;15.60;99.90;;;;;;5094655;28;19923;-67
2022/09/16 07:38:53;;;;;;;;;;;15.80;99.90;;;;;;5076186;28;19918;-67
2022/09/16 07:41:20;;;;;;;;;;;15.80;99.90;;;;;;5094527;28;19933;-67
2022/09/16 07:43:46;;;;;;;;;;;16.00;99.90;;;;;;5076208;28;20356;-67
2022/09/16 07:46:12;;;;;;;;;;;16.20;99.90;;;;;;5094693;28;19915;-67
2022/09/16 07:48:37;;;;;;;;;;;16.10;99.90;;;;;;5094420;28;19940;-67
2022/09/16 07:51:05;;;;;;;;;;;16.10;99.90;;;;;;5094354;28;19911;-67
2022/09/16 07:53:31;;;;;;;;;;;16.10;99.90;;;;;;5094899;28;19904;-67
2022/09/16 07:56:00;;;;;;;;;;;16.10;99.90;;;;;;5094266;28;19904;-67
2022/09/16 07:58:25;;;;;;;;;;;16.30;99.90;;;;;;5094150;28;19907;-67
2022/09/16 08:00:51;;;;;;;;;;;16.30;99.90;;;;;;5094161;28;20391;-66
2022/09/16 08:03:16;;;;;;;;;;;16.30;99.90;;;;;;5094533;28;19904;-66
2022/09/16 08:05:42;;;;;;;;;;;16.20;99.90;;;;;;5094550;28;19904;-66
2022/09/16 08:08:08;;;;;;;;;;;16.20;99.90;;;;;;5094078;28;19965;-67
2022/09/16 08:10:35;;;;;;;;;;;16.20;99.90;;;;;;5094019;28;20044;-66
2022/09/16 08:13:01;;;;;;;;;;;16.20;99.90;;;;;;5093980;28;19904;-66
2022/09/16 08:15:26;;;;;;;;;;;16.10;99.90;;;;;;5094087;28;20379;-66
2022/09/16 08:17:52;;;;;;;;;;;16.10;99.90;;;;;;5094283;28;20019;-67
2022/09/16 08:20:17;;;;;;;;;;;16.20;99.90;;;;;;5094156;28;20388;-67
2022/09/16 08:22:43;;;;;;;;;;;16.20;99.90;;;;;;5094033;28;20404;-66
2022/09/16 08:25:08;;;;;;;;;;;16.10;99.90;;;;;;5095022;28;20264;-67
2022/09/16 08:27:34;;;;;;;;;;;16.20;99.90;;;;;;5094829;28;19910;-66
2022/09/16 08:30:00;;;;;;;;;;;16.30;99.90;;;;;;5094322;28;20315;-68
2022/09/16 08:32:25;;;;;;;;;;;16.20;99.90;;;;;;5094542;28;19910;-68
2022/09/16 08:34:52;;;;;;;;;;;16.20;99.90;;;;;;5094416;28;20007;-68
2022/09/16 08:37:18;;;;;;;;;;;16.10;99.90;;;;;;5093891;28;19972;-68
2022/09/16 08:39:43;;;;;;;;;;;16.10;99.90;;;;;;5094327;28;19916;-65
2022/09/16 08:42:28;;;;;;;;;;;16.00;99.90;;;;;;5094223;28;19920;-67
2022/09/16 08:45:18;;;;;;;;;;;16.00;99.90;;;;;;5093934;28;19904;-66
2022/09/16 08:47:53;;;;;;;;;;;16.10;99.90;;;;;;5063471;28;19904;-66
2022/09/16 08:50:23;;;;;;;;;;;16.20;99.90;;;;;;5093767;28;20364;-67
2022/09/16 08:52:49;;;;;;;;;;;16.20;99.90;;;;;;5094185;28;19908;-66
2022/09/16 08:55:17;;;;;;;;;;;16.30;99.90;;;;;;5094008;28;20379;-66
2022/09/16 08:57:52;;;;;;;;;;;16.30;99.90;;;;;;5093854;28;19990;-67
2022/09/16 09:00:18;;;;;;;;;;;16.30;99.90;;;;;;5093676;28;19943;-67
2022/09/16 09:02:47;;;;;;;;;;;16.30;99.90;;;;;;5094051;28;19918;-66
2022/09/16 09:05:15;;;;;;;;;;;16.20;99.90;;;;;;5094186;28;19908;-66
2022/09/16 09:07:50;;;;;;;;;;;16.10;99.90;;;;;;5094070;28;19904;-69
2022/09/16 09:10:25;;;;;;;;;;;16.10;99.90;;;;;;5094888;28;20038;-67
2022/09/16 09:12:56;;;;;;;;;;;16.10;99.90;;;;;;5094796;28;19911;-68
2022/09/16 09:15:40;;;;;;;;;;;16.10;99.90;;;;;;5076540;28;19923;-67
2022/09/16 09:18:14;;;;;;;;;;;16.00;99.90;;;;;;5094104;28;19969;-66
2022/09/16 09:20:51;;;;;;;;;;;16.00;99.90;;;;;;5075800;28;19947;-68
2022/09/16 09:23:16;;;;;;;;;;;16.10;99.90;;;;;;5094044;28;19910;-65
2022/09/16 09:25:54;;;;;;;;;;;16.10;99.90;;;;;;5075805;28;19991;-67
2022/09/16 09:28:22;;;;;;;;;;;16.30;99.90;;;;;;5075619;28;20325;-69
2022/09/16 09:30:52;;;;;;;;;;;16.20;99.90;;;;;;5093503;28;19904;-67
2022/09/16 09:33:19;;;;;;;;;;;16.20;99.90;;;;;;5094416;28;19908;-68
2022/09/16 09:35:48;;;;;;;;;;;16.20;99.90;;;;;;5098083;28;19911;-66
2022/09/16 09:38:33;;;;;;;;;;;16.20;99.90;;;;;;5097746;28;20361;-67
2022/09/16 09:41:03;;;;;;;;;;;16.20;99.90;;;;;;5097569;28;19915;-68
2022/09/16 09:43:33;;;;;;;;;;;16.20;99.90;;;;;;5097802;28;19943;-67
2022/09/16 09:46:03;;;;;;;;;;;16.20;99.90;;;;;;5097556;28;19904;-66
2022/09/16 09:48:28;;;;;;;;;;;16.20;99.90;;;;;;5097807;28;20330;-66
2022/09/16 09:50:54;;;;;;;;;;;16.20;99.90;;;;;;5097230;28;19907;-66
2022/09/16 09:53:27;;;;;;;;;;;16.20;99.90;;;;;;5078691;28;20277;-67
2022/09/16 09:56:03;;;;;;;;;;;16.10;99.90;;;;;;5096952;28;19908;-67
2022/09/16 09:58:39;;;;;;;;;;;16.10;99.90;;;;;;5097017;28;19987;-67
2022/09/16 10:01:05;;;;;;;;;;;16.10;99.90;;;;;;5096893;28;20280;-65
2022/09/16 10:03:30;;;;;;;;;;;16.10;99.90;;;;;;5078855;28;19904;-67
2022/09/16 10:05:56;;;;;;;;;;;16.00;99.90;;;;;;5096890;28;20236;-66
2022/09/16 10:08:27;;;;;;;;;;;16.00;99.90;;;;;;5097083;28;19908;-67
2022/09/16 10:11:00;;;;;;;;;;;16.00;99.90;;;;;;5097106;28;19904;-67
2022/09/16 10:13:26;;;;;;;;;;;16.10;99.90;;;;;;5097109;28;19908;-67
2022/09/16 10:15:53;;;;;;;;;;;16.10;99.90;;;;;;5078751;28;19953;-69
2022/09/16 10:18:27;;;;;;;;;;;16.10;99.90;;;;;;5096712;28;20368;-65
2022/09/16 10:20:58;;;;;;;;;;;16.10;99.90;;;;;;5096518;28;19994;-66
2022/09/16 10:23:24;;;;;;;;;;;16.30;99.90;;;;;;5096627;28;19983;-62
2022/09/16 10:26:01;;;;;;;;;;;16.30;99.90;;;;;;5097123;28;19904;-68
2022/09/16 10:28:27;;;;;;;;;;;16.20;99.90;;;;;;5078224;28;19904;-68
2022/09/16 10:30:55;;;;;;;;;;;16.30;99.90;;;;;;5096592;28;19911;-65
2022/09/16 10:33:34;;;;;;;;;;;16.30;99.90;;;;;;5097155;28;19904;-68
2022/09/16 10:36:02;;;;;;;;;;;16.30;99.90;;;;;;5078796;28;19908;-67
2022/09/16 10:38:41;;;;;;;;;;;16.40;99.90;;;;;;5078025;28;19912;-67
2022/09/16 10:41:06;;;;;;;;;;;16.90;99.90;;;;;;5096376;28;20349;-68
2022/09/16 10:43:32;;;;;;;;;;;17.50;99.90;;;;;;5096653;28;19987;-70
2022/09/16 10:45:57;;;;;;;;;;;18.20;99.90;;;;;;5095640;28;19904;-68
2022/09/16 10:48:28;;;;;;;;;;;18.50;99.90;;;;;;5096295;28;20004;-67
2022/09/16 10:50:58;;;;;;;;;;;18.80;99.90;;;;;;5096459;28;20072;-67
2022/09/16 10:53:29;;;;;;;;;;;19.00;99.90;;;;;;5096216;28;19904;-68
2022/09/16 10:55:56;;;;;;;;;;;19.00;99.90;;;;;;5096077;28;19911;-68
2022/09/16 10:58:22;;;;;;;;;;;18.90;99.90;;;;;;5096185;28;19908;-68
2022/09/16 11:00:56;;;;;;;;;;;18.80;99.90;;;;;;5095772;28;20002;-68
2022/09/16 11:03:34;;;;;;;;;;;18.60;99.90;;;;;;5096168;28;19946;-68
2022/09/16 11:06:06;;;;;;;;;;;18.60;99.90;;;;;;5096072;28;19988;-68
2022/09/16 11:08:37;;;;;;;;;;;18.50;99.90;;;;;;5078154;28;19908;-69
2022/09/16 11:11:18;;;;;;;;;;;18.50;99.90;;;;;;5095497;28;19945;-68
2022/09/16 11:14:00;;;;;;;;;;;18.70;99.90;;;;;;5095826;28;19904;-69
2022/09/16 11:16:28;;;;;;;;;;;19.00;99.90;;;;;;5095688;28;19904;-68
2022/09/16 11:19:12;;;;;;;;;;;19.10;99.90;;;;;;5095641;28;19904;-68
2022/09/16 11:21:55;;;;;;;;;;;19.10;99.90;;;;;;5095428;28;20028;-68
2022/09/16 11:24:39;;;;;;;;;;;19.10;99.90;;;;;;5095966;28;19911;-68
2022/09/16 11:27:10;;;;;;;;;;;19.00;99.90;;;;;;5095427;28;19912;-68
2022/09/16 11:29:47;;;;;;;;;;;19.20;99.90;;;;;;5095914;28;20296;-68
2022/09/16 11:32:13;;;;;;;;;;;19.30;99.90;;;;;;5095770;28;19911;-68
2022/09/16 11:34:56;;;;;;;;;;;19.50;99.90;;;;;;5095318;28;19904;-68
2022/09/16 11:37:42;;;;;;;;;;;19.60;99.90;;;;;;5095021;28;19935;-69
2022/09/16 11:40:26;;;;;;;;;;;19.70;99.90;;;;;;5095865;28;19908;-68
2022/09/16 11:43:10;;;;;;;;;;;19.70;99.90;;;;;;5119531;22;20011;-64
2022/09/16 11:45:41;;;;;;;;;;;19.90;99.90;;;;;;5053583;28;19912;-68
2022/09/16 11:48:18;;;;;;;;;;;19.70;99.90;;;;;;5054538;28;19905;-70
2022/09/16 11:50:58;;;;;;;;;;;19.70;99.90;;;;;;5054573;28;19940;-66
2022/09/16 11:53:24;;;;;;;;;;;19.80;99.90;;;;;;5054496;28;19912;-67
2022/09/16 11:55:56;;;;;;;;;;;20.00;99.90;;;;;;5054558;28;20018;-70
2022/09/16 11:58:28;;;;;;;;;;;20.40;99.90;;;;;;5053326;28;19959;-71
2022/09/16 12:00:55;;;;;;;;;;;20.60;99.70;;;;;;5036288;28;19908;-68
2022/09/16 12:03:28;;;;;;;;;;;20.70;98.10;;;;;;5036267;28;19909;-69
2022/09/16 12:06:02;;;;;;;;;;;20.90;98.40;;;;;;5054356;28;19905;-69
2022/09/16 12:08:43;;;;;;;;;;;20.80;96.20;;;;;;5054311;28;19958;-69
2022/09/16 12:11:31;;;;;;;;;;;21.00;97.10;;;;;;5054321;28;19912;-70
2022/09/16 12:14:06;;;;;;;;;;;20.80;96.10;;;;;;5058245;28;20122;-70
2022/09/16 12:16:38;;;;;;;;;;;20.60;96.10;;;;;;5056839;28;19948;-69
2022/09/16 12:19:13;;;;;;;;;;;20.40;96.80;;;;;;5054228;28;19909;-69
2022/09/16 12:21:41;;;;;;;;;;;20.10;96.90;;;;;;5053860;28;20005;-68
2022/09/16 12:24:30;;;;;;;;;;;20.10;97.90;;;;;;5056081;28;20277;-68
2022/09/16 12:27:01;;;;;;;;;;;20.10;98.90;;;;;;5054974;28;19905;-70
2022/09/16 12:29:31;;;;;;;;;;;20.00;99.20;;;;;;5054299;28;19905;-68
2022/09/16 12:31:59;;;;;;;;;;;19.90;99.90;;;;;;5053989;28;20017;-70
2022/09/16 12:34:28;;;;;;;;;;;19.90;98.30;;;;;;5035988;28;19904;-68
2022/09/16 12:36:57;;;;;;;;;;;20.10;98.30;;;;;;5036409;28;19904;-69
2022/09/16 12:39:23;;;;;;;;;;;20.10;97.40;;;;;;5052763;28;19947;-70
2022/09/16 12:42:11;;;;;;;;;;;20.10;97.30;;;;;;5052798;28;19954;-70
2022/09/16 12:44:57;;;;;;;;;;;20.00;97.80;;;;;;5054040;28;19919;-70
2022/09/16 12:47:42;;;;;;;;;;;19.90;98.10;;;;;;5035716;28;19912;-72
2022/09/16 12:50:26;;;;;;;;;;;20.00;97.80;;;;;;5053959;28;19912;-73
2022/09/16 12:53:03;;;;;;;;;;;19.80;97.80;;;;;;5053832;28;19993;-71
2022/09/16 12:55:38;;;;;;;;;;;19.60;98.10;;;;;;5035530;28;19947;-69
2022/09/16 12:58:04;;;;;;;;;;;19.50;99.20;;;;;;5053837;28;20258;-70
2022/09/16 13:00:42;;;;;;;;;;;19.40;99.40;;;;;;5053530;28;19916;-70
2022/09/16 13:03:18;;;;;;;;;;;19.40;99.20;;;;;;5053915;28;19904;-69
2022/09/16 13:05:45;;;;;;;;;;;19.40;99.40;;;;;;5053657;28;19912;-70
2022/09/16 13:08:28;;;;;;;;;;;19.50;98.70;;;;;;5052930;28;20316;-69
2022/09/16 13:10:55;;;;;;;;;;;19.50;98.80;;;;;;5039816;28;20234;-70
2022/09/16 13:13:32;;;;;;;;;;;19.30;98.20;;;;;;5039478;28;19910;-71
2022/09/16 13:15:59;;;;;;;;;;;19.10;98.70;;;;;;5057286;28;19905;-70
2022/09/16 13:18:36;;;;;;;;;;;18.90;99.00;;;;;;5057103;28;19905;-71
2022/09/16 13:21:06;;;;;;;;;;;18.80;99.50;;;;;;5056019;28;19913;-71
2022/09/16 13:23:35;;;;;;;;;;;18.90;99.90;;;;;;5039333;28;20408;-70
2022/09/16 13:26:04;;;;;;;;;;;19.10;99.30;;;;;;5057583;28;20475;-70
2022/09/16 13:28:33;;;;;;;;;;;19.30;99.20;;;;;;5057193;28;19905;-70
2022/09/16 13:31:08;;;;;;;;;;;19.40;98.60;;;;;;5038915;28;19950;-70
2022/09/16 13:33:33;;;;;;;;;;;19.50;98.60;;;;;;5057117;28;19911;-68
2022/09/16 13:36:18;;;;;;;;;;;19.50;99.00;;;;;;5055765;28;19904;-70
2022/09/16 13:38:48;;;;;;;;;;;19.60;98.60;;;;;;5057193;28;20338;-71
2022/09/16 13:41:27;;;;;;;;;;;19.60;97.50;;;;;;5057619;28;19915;-71
2022/09/16 13:43:53;;;;;;;;;;;19.60;97.60;;;;;;5057082;28;20277;-69
2022/09/16 13:46:26;;;;;;;;;;;19.60;96.10;;;;;;5057602;28;19904;-69
2022/09/16 13:48:51;;;;;;;;;;;19.60;95.40;;;;;;5057634;28;19954;-69
2022/09/16 13:51:19;;;;;;;;;;;19.80;95.00;;;;;;5038931;28;19908;-69
2022/09/16 13:53:46;;;;;;;;;;;19.80;94.90;;;;;;5057710;28;19911;-71
2022/09/16 13:56:17;;;;;;;;;;;19.70;94.90;;;;;;5059592;28;19909;-68
2022/09/16 13:58:55;;;;;;;;;;;19.60;94.80;;;;;;5057324;28;20375;-70
2022/09/16 14:01:27;;;;;;;;;;;19.50;94.80;;;;;;5056684;28;20326;-71
2022/09/16 14:03:52;;;;;;;;;;;19.40;94.80;;;;;;5055470;28;19927;-70
2022/09/16 14:06:38;;;;;;;;;;;19.30;95.00;;;;;;5057111;28;20330;-70
2022/09/16 14:09:12;;;;;;;;;;;19.20;95.00;;;;;;5049099;28;19904;-69
2022/09/16 14:11:41;;;;;;;;;;;19.10;95.70;;;;;;5056463;28;19958;-69
2022/09/16 14:14:09;;;;;;;;;;;19.10;95.90;;;;;;5038680;28;19970;-68
2022/09/16 14:16:38;;;;;;;;;;;19.10;96.30;;;;;;5038451;28;20411;-68
2022/09/16 14:19:13;;;;;;;;;;;19.30;96.10;;;;;;5062045;28;19904;-71
2022/09/16 14:21:39;;;;;;;;;;;19.50;96.00;;;;;;5056890;28;19909;-68
2022/09/16 14:24:07;;;;;;;;;;;19.70;95.20;;;;;;5056518;28;19905;-68
2022/09/16 14:26:33;;;;;;;;;;;19.90;93.10;;;;;;5038431;28;19962;-67
2022/09/16 14:30:44;;;;;;;8.18;1.33;;;20.30;92.50;;;;;;5111952;27;20296;-70